Time;durP1;ratioP1;P1;durP2;ratioP2;P2;SDS_P1;SDS_P2;PMS_P1;PMS_P2;Temp;Humidity;BMP_temperature;BMP_pressure;BME280_temperature;BME280_humidity;BME280_pressure;Samples;Min_cycle;Max_cycle;Signal;HPM_P1;HPM_P2
2021/08/16 00:00:07;;;;;;;31.45;14.70;;;;;;;16.79;100.00;93582.03;5072673;28;20210;-76
2021/08/16 00:02:34;;;;;;;33.28;17.35;;;;;;;16.89;100.00;93579.53;5072675;28;20202;-76
2021/08/16 00:05:02;;;;;;;40.95;18.98;;;;;;;17.01;100.00;93582.84;5073027;28;20195;-76
2021/08/16 00:07:28;;;;;;;37.53;19.80;;;;;;;16.99;100.00;93577.03;5072730;28;20223;-76
2021/08/16 00:09:54;;;;;;;37.13;19.80;;;;;;;17.06;100.00;93570.78;5072771;28;20199;-76
2021/08/16 00:12:21;;;;;;;38.50;18.00;;;;;;;17.01;100.00;93561.75;5072546;28;20628;-77
2021/08/16 00:14:47;;;;;;;39.22;19.65;;;;;;;17.15;100.00;93545.53;5072551;28;20214;-76
2021/08/16 00:17:14;;;;;;;36.88;20.90;;;;;;;17.27;100.00;93546.22;5072765;28;20569;-76
2021/08/16 00:19:40;;;;;;;51.50;22.08;;;;;;;17.36;100.00;93550.00;5072742;28;20198;-75
2021/08/16 00:22:08;;;;;;;38.58;19.38;;;;;;;17.35;100.00;93539.69;5072552;28;20198;-76
2021/08/16 00:24:34;;;;;;;40.15;19.98;;;;;;;17.29;100.00;93535.44;5072547;28;20203;-76
2021/08/16 00:27:01;;;;;;;34.80;18.30;;;;;;;17.24;100.00;93535.38;5074033;28;20233;-76
2021/08/16 00:29:27;;;;;;;38.00;18.42;;;;;;;17.25;100.00;93544.88;5076713;28;20199;-76
2021/08/16 00:31:54;;;;;;;39.55;19.27;;;;;;;17.25;100.00;93543.03;5076530;28;20209;-76
2021/08/16 00:34:20;;;;;;;29.08;16.67;;;;;;;17.18;100.00;93532.66;5076481;28;20207;-77
2021/08/16 00:36:47;;;;;;;48.03;20.42;;;;;;;17.32;100.00;93533.09;5076311;28;20206;-77
2021/08/16 00:39:15;;;;;;;52.60;18.13;;;;;;;17.27;100.00;93529.56;5076304;28;20206;-78
2021/08/16 00:41:41;;;;;;;31.90;19.02;;;;;;;17.22;100.00;93525.06;5075806;28;20199;-76
2021/08/16 00:44:09;;;;;;;43.38;21.52;;;;;;;17.31;100.00;93522.78;5076209;28;20195;-77
2021/08/16 00:46:36;;;;;;;39.95;20.65;;;;;;;17.30;100.00;93527.28;5075924;28;20238;-77
2021/08/16 00:49:02;;;;;;;38.95;19.17;;;;;;;17.27;100.00;93530.41;5076187;28;20202;-78
2021/08/16 00:51:31;;;;;;;32.08;19.13;;;;;;;17.34;100.00;93532.84;5076102;28;20194;-76
2021/08/16 00:53:58;;;;;;;35.13;20.00;;;;;;;17.38;100.00;93537.34;5076024;28;20206;-77
2021/08/16 00:56:26;;;;;;;35.53;18.90;;;;;;;17.41;100.00;93527.38;5075761;28;20209;-77
2021/08/16 00:58:53;;;;;;;37.72;19.38;;;;;;;17.49;100.00;93519.00;5076118;28;20319;-76
2021/08/16 01:01:20;;;;;;;44.17;21.30;;;;;;;17.55;100.00;93504.78;5075860;28;20210;-76
2021/08/16 01:03:46;;;;;;;43.97;20.77;;;;;;;17.61;100.00;93509.06;5075890;28;20199;-77
2021/08/16 01:06:13;;;;;;;44.67;22.25;;;;;;;17.60;100.00;93507.47;5075375;28;20539;-76
2021/08/16 01:08:39;;;;;;;41.75;19.20;;;;;;;17.53;100.00;93501.59;5075483;28;20227;-77
2021/08/16 01:11:06;;;;;;;34.92;18.48;;;;;;;17.64;100.00;93516.50;5075568;28;20206;-76
2021/08/16 01:13:33;;;;;;;36.38;17.95;;;;;;;17.60;100.00;93533.09;5075731;28;20203;-76
2021/08/16 01:16:02;;;;;;;36.88;16.83;;;;;;;17.68;100.00;93554.53;5075661;28;20206;-76
2021/08/16 01:18:32;;;;;;;38.40;18.02;;;;;;;17.76;100.00;93542.75;5075725;28;20199;-75
2021/08/16 01:20:59;;;;;;;38.53;18.45;;;;;;;17.80;100.00;93533.25;5075517;28;20293;-77
2021/08/16 01:23:27;;;;;;;30.00;16.98;;;;;;;17.79;100.00;93542.25;5075405;28;20203;-74
2021/08/16 01:25:54;;;;;;;27.50;16.25;;;;;;;17.78;100.00;93531.94;5075528;28;20202;-78
2021/08/16 01:28:23;;;;;;;29.58;18.10;;;;;;;17.88;100.00;93524.13;5075494;28;20230;-77
2021/08/16 01:30:51;;;;;;;38.38;18.63;;;;;;;17.85;100.00;93525.41;5075229;28;20281;-76
2021/08/16 01:33:18;;;;;;;28.38;17.25;;;;;;;17.84;100.00;93528.28;5075596;28;20210;-76
2021/08/16 01:35:44;;;;;;;35.17;16.92;;;;;;;17.85;100.00;93540.44;5075178;28;20205;-76
2021/08/16 01:38:11;;;;;;;46.45;18.05;;;;;;;17.88;100.00;93534.69;5074425;28;20202;-76
2021/08/16 01:40:38;;;;;;;32.20;15.35;;;;;;;17.82;100.00;93572.63;5075308;28;20199;-77
2021/08/16 01:43:04;;;;;;;29.63;13.88;;;;;;;17.88;100.00;93587.50;5075180;28;20199;-77
2021/08/16 01:45:32;;;;;;;25.30;14.93;;;;;;;18.14;100.00;93569.25;5074828;28;20234;-76
2021/08/16 01:47:59;;;;;;;31.42;13.15;;;;;;;18.07;100.00;93567.59;5074954;28;20222;-77
2021/08/16 01:50:26;;;;;;;28.23;10.38;;;;;;;18.05;100.00;93559.16;5074941;28;20202;-77
2021/08/16 01:52:53;;;;;;;24.90;8.75;;;;;;;17.91;100.00;93544.75;5075089;28;20199;-77
2021/08/16 01:55:19;;;;;;;18.48;8.70;;;;;;;17.80;100.00;93543.03;5075022;28;20195;-77
2021/08/16 01:57:45;;;;;;;15.68;8.57;;;;;;;17.57;100.00;93544.94;5074935;28;20198;-78
2021/08/16 02:00:13;;;;;;;15.02;7.88;;;;;;;17.36;100.00;93550.00;5074733;28;20199;-77
2021/08/16 02:02:40;;;;;;;13.75;7.72;;;;;;;17.23;100.00;93545.13;5074735;28;20198;-76
2021/08/16 02:05:08;;;;;;;18.38;9.23;;;;;;;17.22;100.00;93551.44;5074567;28;20202;-76
2021/08/16 02:07:34;;;;;;;12.45;8.32;;;;;;;17.16;100.00;93547.16;5074709;28;20596;-76
2021/08/16 02:10:01;;;;;;;13.95;8.40;;;;;;;17.01;100.00;93538.00;5074796;28;20249;-76
2021/08/16 02:12:27;;;;;;;14.65;8.50;;;;;;;16.92;100.00;93539.50;5074594;28;20195;-77
2021/08/16 02:14:54;;;;;;;25.60;10.15;;;;;;;16.95;100.00;93536.38;5074469;28;20671;-78
2021/08/16 02:17:20;;;;;;;23.75;10.50;;;;;;;16.94;100.00;93545.31;5074401;28;20199;-77
2021/08/16 02:19:48;;;;;;;19.90;11.90;;;;;;;16.98;100.00;93556.97;5074275;28;20206;-76
2021/08/16 02:22:15;;;;;;;17.98;11.93;;;;;;;16.97;100.00;93547.47;5074477;28;20195;-75
2021/08/16 02:24:42;;;;;;;27.75;12.88;;;;;;;17.06;100.00;93544.41;5074261;28;20205;-76
2021/08/16 02:27:08;;;;;;;22.23;12.68;;;;;;;17.05;100.00;93543.59;5074172;28;20222;-76
2021/08/16 02:29:35;;;;;;;24.27;12.05;;;;;;;17.04;100.00;93544.66;5074223;28;20205;-77
2021/08/16 02:32:02;;;;;;;24.00;12.50;;;;;;;17.01;100.00;93548.56;5074003;28;20206;-76
2021/08/16 02:34:28;;;;;;;24.27;11.93;;;;;;;16.97;100.00;93554.56;5074067;28;20207;-76
2021/08/16 02:36:56;;;;;;;19.30;11.95;;;;;;;16.90;100.00;93552.13;5073926;28;20676;-76
2021/08/16 02:39:23;;;;;;;22.23;11.98;;;;;;;16.85;100.00;93557.31;5074152;28;20202;-76
2021/08/16 02:41:49;;;;;;;23.35;12.52;;;;;;;16.79;100.00;93567.00;5073386;28;20650;-76
2021/08/16 02:44:16;;;;;;;23.00;13.30;;;;;;;16.86;100.00;93582.66;5073909;28;20206;-76
2021/08/16 02:46:42;;;;;;;28.00;13.13;;;;;;;16.79;100.00;93574.09;5073566;28;20236;-77
2021/08/16 02:49:09;;;;;;;29.10;13.90;;;;;;;16.72;100.00;93578.75;5073703;28;20239;-77
2021/08/16 02:51:35;;;;;;;31.90;13.70;;;;;;;16.75;100.00;93586.16;5073862;28;20209;-76
2021/08/16 02:54:03;;;;;;;35.55;14.63;;;;;;;16.72;100.00;93584.00;5073785;28;20225;-76
2021/08/16 02:56:29;;;;;;;27.65;15.30;;;;;;;16.82;100.00;93590.22;5073671;28;20230;-76
2021/08/16 02:58:56;;;;;;;30.70;15.20;;;;;;;16.81;100.00;93601.03;5073664;28;20214;-75
2021/08/16 03:01:22;;;;;;;29.08;16.27;;;;;;;16.82;100.00;93598.16;5073539;28;20210;-76
2021/08/16 03:03:49;;;;;;;31.80;14.32;;;;;;;16.76;100.00;93593.06;5073497;28;20673;-77
2021/08/16 03:06:15;;;;;;;23.33;13.65;;;;;;;16.73;100.00;93593.53;5073379;28;20202;-77
2021/08/16 03:08:42;;;;;;;28.15;14.10;;;;;;;16.73;100.00;93593.53;5073470;28;20559;-77
2021/08/16 03:11:10;;;;;;;30.50;14.68;;;;;;;16.70;100.00;93594.81;5073409;28;20206;-76
2021/08/16 03:13:36;;;;;;;28.30;14.32;;;;;;;16.67;100.00;93605.84;5073301;28;20203;-77
2021/08/16 03:16:03;;;;;;;29.83;14.60;;;;;;;16.65;100.00;93603.47;5073269;28;20202;-76
2021/08/16 03:18:31;;;;;;;32.30;15.60;;;;;;;16.68;100.00;93596.09;5073471;28;20289;-77
2021/08/16 03:20:57;;;;;;;22.80;14.48;;;;;;;16.65;100.00;93592.09;5073217;28;20685;-77
2021/08/16 03:23:24;;;;;;;37.50;18.92;;;;;;;16.92;100.00;93591.44;5073278;28;20202;-76
2021/08/16 03:25:50;;;;;;;31.30;17.50;;;;;;;16.95;100.00;93591.75;5073306;28;20199;-77
2021/08/16 03:28:18;;;;;;;31.42;16.95;;;;;;;16.91;100.00;93590.63;5073161;28;20234;-77
2021/08/16 03:30:47;;;;;;;30.90;16.60;;;;;;;17.11;100.00;93584.03;5074081;28;20206;-77
2021/08/16 03:33:14;;;;;;;29.73;14.38;;;;;;;17.50;100.00;93587.38;5073234;28;20596;-76
2021/08/16 03:35:41;;;;;;;23.52;13.95;;;;;;;17.66;100.00;93579.63;5073206;28;20202;-77
2021/08/16 03:38:08;;;;;;;18.83;11.68;;;;;;;17.47;100.00;93582.59;5072978;28;20673;-76
2021/08/16 03:40:34;;;;;;;16.85;11.60;;;;;;;17.30;100.00;93572.13;5072981;28;20211;-76
2021/08/16 03:43:01;;;;;;;21.25;10.48;;;;;;;17.14;100.00;93581.69;5072847;28;20211;-75
2021/08/16 03:45:29;;;;;;;19.10;10.82;;;;;;;17.04;100.00;93572.84;5072686;28;20240;-75
2021/08/16 03:47:55;;;;;;;12.73;9.68;;;;;;;16.90;100.00;93565.28;5072850;28;20585;-77
2021/08/16 03:50:22;;;;;;;23.50;11.43;;;;;;;16.87;100.00;93567.63;5072949;28;20209;-75
2021/08/16 03:52:49;;;;;;;18.27;9.77;;;;;;;16.72;100.00;93561.09;5072715;28;20684;-77
2021/08/16 03:55:15;;;;;;;20.83;11.48;;;;;;;16.76;100.00;93572.75;5072842;28;20198;-77
2021/08/16 03:57:42;;;;;;;28.38;12.45;;;;;;;16.86;100.00;93582.66;5073053;28;20205;-77
2021/08/16 04:00:11;;;;;;;33.13;13.23;;;;;;;16.93;100.00;93585.91;5072955;28;20195;-77
2021/08/16 04:02:41;;;;;;;24.73;13.43;;;;;;;17.04;100.00;93586.84;5072149;28;20234;-76
2021/08/16 04:05:09;;;;;;;26.35;13.48;;;;;;;17.27;100.00;93593.72;5072636;28;20752;-78
2021/08/16 04:07:36;;;;;;;20.63;11.45;;;;;;;17.53;100.00;93594.78;5072725;28;20592;-77
2021/08/16 04:10:03;;;;;;;23.55;10.70;;;;;;;17.74;100.00;93587.09;5072555;28;20202;-75
2021/08/16 04:12:29;;;;;;;21.50;9.68;;;;;;;17.78;100.00;93588.16;5072875;28;20210;-77
2021/08/16 04:14:56;;;;;;;15.00;8.65;;;;;;;18.04;100.00;93597.16;5072794;28;20203;-75
2021/08/16 04:17:22;;;;;;;18.15;8.82;;;;;;;18.17;100.00;93592.50;5072542;28;20206;-77
2021/08/16 04:19:50;;;;;;;18.65;8.32;;;;;;;18.28;100.00;93596.81;5072537;28;20289;-77
2021/08/16 04:22:17;;;;;;;15.80;7.88;;;;;;;18.47;100.00;93591.97;5072575;28;20201;-77
2021/08/16 04:24:43;;;;;;;15.10;7.65;;;;;;;18.33;100.00;93578.38;5072482;28;20207;-77
2021/08/16 04:27:10;;;;;;;19.38;8.07;;;;;;;18.21;100.00;93578.53;5072570;28;20199;-78
2021/08/16 04:29:36;;;;;;;16.98;7.47;;;;;;;18.25;100.00;93586.75;5072530;28;20226;-76
2021/08/16 04:32:03;;;;;;;16.80;7.88;;;;;;;18.20;100.00;93584.06;5072602;28;20303;-76
2021/08/16 04:34:30;;;;;;;16.50;7.80;;;;;;;18.20;100.00;93579.59;5072520;28;20195;-77
2021/08/16 04:36:57;;;;;;;15.60;8.50;;;;;;;18.28;100.00;93575.69;5072324;28;20196;-77
2021/08/16 04:39:24;;;;;;;18.20;7.80;;;;;;;18.33;100.00;93594.22;5072032;28;20210;-77
2021/08/16 04:41:50;;;;;;;21.08;7.50;;;;;;;18.38;100.00;93591.63;5072120;28;20195;-76
2021/08/16 04:44:17;;;;;;;11.93;7.40;;;;;;;18.35;100.00;93601.91;5072483;28;20206;-76
2021/08/16 04:46:44;;;;;;;17.45;7.82;;;;;;;18.42;100.00;93598.00;5072117;28;20251;-77
2021/08/16 04:49:10;;;;;;;16.48;7.57;;;;;;;18.45;100.00;93602.78;5072184;28;20233;-77
2021/08/16 04:51:37;;;;;;;12.85;8.05;;;;;;;18.52;100.00;93591.19;5072206;28;20209;-76
2021/08/16 04:54:05;;;;;;;16.90;7.65;;;;;;;18.59;100.00;93597.06;5072422;28;20203;-76
2021/08/16 04:56:31;;;;;;;13.40;7.80;;;;;;;18.59;100.00;93602.34;5072575;28;20195;-76
2021/08/16 04:59:00;;;;;;;14.18;7.85;;;;;;;18.55;100.00;93607.34;5072339;28;20202;-76
2021/08/16 05:01:26;;;;;;;16.20;8.15;;;;;;;18.49;100.00;93603.84;5072236;28;20244;-77
2021/08/16 05:03:54;;;;;;;14.50;7.55;;;;;;;18.38;100.00;93601.41;5072499;28;20195;-74
2021/08/16 05:06:28;;;;;;;16.13;8.43;;;;;;;18.41;100.00;93603.53;5072154;28;20223;-77
2021/08/16 05:08:55;;;;;;;12.43;7.30;;;;;;;18.37;100.00;93610.38;5072378;28;20268;-76
2021/08/16 05:11:23;;;;;;;14.75;8.77;;;;;;;18.31;100.00;93628.84;5072059;28;20206;-77
2021/08/16 05:13:49;;;;;;;16.52;7.72;;;;;;;18.29;100.00;93624.84;5073340;28;20661;-76
2021/08/16 05:16:16;;;;;;;21.52;8.32;;;;;;;18.25;100.00;93619.28;5075673;28;20206;-76
2021/08/16 05:18:43;;;;;;;11.85;7.45;;;;;;;18.24;100.00;93620.31;5075495;28;20205;-76
2021/08/16 05:21:09;;;;;;;13.98;7.35;;;;;;;18.22;100.00;93618.97;5075628;28;20195;-77
2021/08/16 05:23:36;;;;;;;14.95;7.53;;;;;;;18.16;100.00;93626.06;5075569;28;20198;-76
2021/08/16 05:26:02;;;;;;;16.08;7.95;;;;;;;18.13;100.00;93631.84;5075550;28;20205;-77
2021/08/16 05:28:30;;;;;;;13.18;7.65;;;;;;;18.06;100.00;93637.34;5075237;28;20693;-77
2021/08/16 05:30:56;;;;;;;22.92;7.80;;;;;;;18.03;100.00;93643.13;5075412;28;20627;-76
2021/08/16 05:33:23;;;;;;;15.25;8.00;;;;;;;18.05;100.00;93641.03;5075115;28;20449;-78
2021/08/16 05:35:50;;;;;;;16.77;8.05;;;;;;;18.06;100.00;93637.34;5075434;28;20203;-77
2021/08/16 05:38:16;;;;;;;18.85;8.43;;;;;;;18.16;100.00;93641.91;5075375;28;20213;-76
2021/08/16 05:40:43;;;;;;;16.52;7.68;;;;;;;18.21;100.00;93644.59;5075308;28;20205;-76
2021/08/16 05:43:09;;;;;;;15.40;7.63;;;;;;;18.20;100.00;93647.50;5075176;28;20194;-76
2021/08/16 05:45:37;;;;;;;20.05;7.78;;;;;;;18.21;100.00;93644.59;5074917;28;20241;-76
2021/08/16 05:48:04;;;;;;;14.38;7.90;;;;;;;18.30;100.00;93634.38;5074929;28;20206;-77
2021/08/16 05:50:30;;;;;;;14.52;7.47;;;;;;;18.35;100.00;93650.25;5075186;28;20202;-78
2021/08/16 05:52:57;;;;;;;18.17;7.35;;;;;;;18.28;100.00;93652.31;5074995;28;20195;-77
2021/08/16 05:55:23;;;;;;;18.75;7.82;;;;;;;18.20;100.00;93658.06;5075026;28;20206;-76
2021/08/16 05:57:50;;;;;;;14.82;7.47;;;;;;;18.20;100.00;93650.97;5074832;28;20206;-77
2021/08/16 06:00:18;;;;;;;12.85;7.82;;;;;;;18.17;100.00;93655.91;5074671;28;20209;-76
2021/08/16 06:02:46;;;;;;;15.68;7.40;;;;;;;18.10;100.00;93664.88;5074899;28;20294;-76
2021/08/16 06:05:13;;;;;;;16.88;7.85;;;;;;;18.12;100.00;93662.75;5074739;28;20199;-76
2021/08/16 06:07:39;;;;;;;16.58;7.30;;;;;;;18.17;100.00;93661.22;5074739;28;20206;-78
2021/08/16 06:10:08;;;;;;;16.88;8.40;;;;;;;18.16;100.00;93659.63;5074550;28;20230;-76
2021/08/16 06:12:35;;;;;;;16.95;7.53;;;;;;;18.06;100.00;93668.25;5074595;28;20229;-76
2021/08/16 06:15:01;;;;;;;15.85;7.78;;;;;;;17.94;100.00;93671.84;5074280;28;20202;-78
2021/08/16 06:17:29;;;;;;;15.07;7.70;;;;;;;17.80;100.00;93680.34;5074499;28;20199;-77
2021/08/16 06:19:57;;;;;;;12.70;7.93;;;;;;;17.82;100.00;93673.78;5074487;28;20252;-77
2021/08/16 06:22:23;;;;;;;23.90;8.85;;;;;;;17.69;100.00;93685.53;5074402;28;20202;-78
2021/08/16 06:24:50;;;;;;;15.70;8.77;;;;;;;17.65;100.00;93691.53;5073838;28;20245;-77
2021/08/16 06:27:19;;;;;;;18.13;8.77;;;;;;;17.61;100.00;93685.97;5074119;28;20658;-78
2021/08/16 06:29:46;;;;;;;18.65;8.82;;;;;;;17.53;100.00;93683.75;5074258;28;20585;-76
2021/08/16 06:32:12;;;;;;;20.00;9.00;;;;;;;17.42;100.00;93695.22;5074374;28;20205;-75
2021/08/16 06:34:41;;;;;;;16.23;8.75;;;;;;;17.23;100.00;93698.16;5074190;28;20195;-76
2021/08/16 06:37:09;;;;;;;19.00;9.20;;;;;;;17.12;100.00;93712.22;5074105;28;20209;-75
2021/08/16 06:39:36;;;;;;;19.00;10.32;;;;;;;17.11;100.00;93710.66;5073971;28;20203;-77
2021/08/16 06:42:03;;;;;;;20.02;9.90;;;;;;;17.12;100.00;93710.41;5073250;28;20650;-77
2021/08/16 06:44:29;;;;;;;23.88;10.02;;;;;;;17.16;100.00;93706.25;5074064;28;20195;-77
2021/08/16 06:46:56;;;;;;;17.40;9.02;;;;;;;17.20;100.00;93714.47;5073876;28;20199;-78
2021/08/16 06:49:23;;;;;;;15.32;8.70;;;;;;;17.21;100.00;93713.44;5073816;28;20233;-76
2021/08/16 06:51:49;;;;;;;16.92;8.60;;;;;;;17.24;100.00;93718.22;5073626;28;20649;-76
2021/08/16 06:54:19;;;;;;;19.33;8.43;;;;;;;17.30;100.00;93709.34;5073757;28;20203;-76
2021/08/16 06:56:45;;;;;;;14.00;8.13;;;;;;;17.66;100.00;93716.91;5073492;28;20257;-77
2021/08/16 06:59:13;;;;;;;14.80;8.45;;;;;;;17.84;100.00;93707.88;5073694;28;20206;-76
2021/08/16 07:01:43;;;;;;;14.13;7.80;;;;;;;18.15;100.00;93708.22;5073457;28;20209;-76
2021/08/16 07:04:10;;;;;;;25.08;7.10;;;;;;;18.24;100.00;93717.31;5073469;28;20205;-76
2021/08/16 07:06:39;;;;;;;14.32;7.05;;;;;;;17.96;100.00;93724.41;5073506;28;20570;-76
2021/08/16 07:09:05;;;;;;;12.68;7.25;;;;;;;17.64;100.00;93725.06;5073441;28;20233;-76
2021/08/16 07:11:33;;;;;;;16.35;6.95;;;;;;;17.70;100.00;93729.38;5074278;28;20198;-76
2021/08/16 07:14:00;;;;;;;13.75;7.22;;;;;;;17.54;100.00;93731.03;5073638;28;20198;-77
2021/08/16 07:16:26;;;;;;;13.98;7.18;;;;;;;17.68;100.00;93728.81;5073907;28;20205;-76
2021/08/16 07:18:55;;;;;;;13.27;6.88;;;;;;;17.62;100.00;93724.53;5073210;28;20207;-76
2021/08/16 07:21:24;;;;;;;10.95;6.00;;;;;;;17.87;100.00;93728.53;5073156;28;20203;-76
2021/08/16 07:23:55;;;;;;;11.63;5.80;;;;;;;18.10;100.00;93717.72;5073155;28;20194;-76
2021/08/16 07:26:23;;;;;;;14.13;6.43;;;;;;;18.27;100.00;93714.97;5073283;28;20205;-76
2021/08/16 07:28:51;;;;;;;13.73;5.75;;;;;;;18.27;100.00;93717.63;5073079;28;20232;-77
2021/08/16 07:31:18;;;;;;;14.80;6.07;;;;;;;18.60;100.00;93725.56;5072971;28;20210;-76
2021/08/16 07:33:44;;;;;;;10.13;5.20;;;;;;;19.15;100.00;93721.81;5073113;28;20198;-77
2021/08/16 07:36:15;;;;;;;15.07;5.90;;;;;;;19.45;100.00;93725.69;5072191;28;20210;-76
2021/08/16 07:38:41;;;;;;;9.25;4.90;;;;;;;19.17;100.00;93727.63;5073092;28;20646;-76
2021/08/16 07:41:10;;;;;;;14.18;5.38;;;;;;;18.47;100.00;93730.22;5072863;28;20202;-76
2021/08/16 07:43:39;;;;;;;9.93;5.47;;;;;;;18.13;100.00;93726.97;5072973;28;20209;-77
2021/08/16 07:46:11;;;;;;;11.30;5.13;;;;;;;18.17;100.00;93729.91;5072788;28;20231;-76
2021/08/16 07:48:37;;;;;;;11.68;5.88;;;;;;;18.23;100.00;93723.63;5072355;28;20257;-76
2021/08/16 07:51:04;;;;;;;10.60;4.93;;;;;;;17.93;100.00;93727.56;5072894;28;20654;-77
2021/08/16 07:53:30;;;;;;;9.15;5.32;;;;;;;17.83;100.00;93735.34;5073086;28;20588;-76
2021/08/16 07:55:57;;;;;;;13.70;5.25;;;;;;;17.66;100.00;93727.47;5072968;28;20203;-76
2021/08/16 07:58:23;;;;;;;10.55;5.28;;;;;;;17.66;100.00;93732.75;5072748;28;20672;-76
2021/08/16 08:00:52;;;;;;;12.00;5.57;;;;;;;17.49;100.00;93735.44;5072627;28;20198;-77
2021/08/16 08:03:20;;;;;;;11.18;4.85;;;;;;;17.51;100.00;93733.34;5072714;28;20199;-76
2021/08/16 08:05:46;;;;;;;12.00;5.68;;;;;;;17.78;100.00;93730.00;5072656;28;20665;-76
2021/08/16 08:08:17;;;;;;;9.23;4.80;;;;;;;17.97;100.00;93728.66;5072790;28;20565;-76
2021/08/16 08:10:43;;;;;;;10.23;4.95;;;;;;;18.55;100.00;93714.94;5072800;28;20226;-76
2021/08/16 08:13:09;;;;;;;8.15;4.53;;;;;;;18.98;100.00;93721.94;5072608;28;20198;-76
2021/08/16 08:15:46;;;;;;;13.65;4.70;;;;;;;19.30;100.00;93718.44;5072725;28;20210;-76
2021/08/16 08:18:14;;;;;;;11.23;4.13;;;;;;;19.88;100.00;93715.81;5071742;28;20657;-77
2021/08/16 08:20:42;;;;;;;14.25;3.67;;;;;;;20.33;90.82;93714.38;5072499;28;20206;-77
2021/08/16 08:23:11;;;;;;;7.10;3.35;;;;;;;20.72;89.89;93721.06;5072561;28;20739;-78
2021/08/16 08:25:40;;;;;;;11.18;3.60;;;;;;;20.28;93.23;93717.00;5072364;28;20661;-78
2021/08/16 08:28:11;;;;;;;6.80;3.33;;;;;;;19.72;90.03;93728.19;5072492;28;20203;-75
2021/08/16 08:30:38;;;;;;;6.15;3.25;;;;;;;19.21;92.73;93722.63;5072345;28;20693;-77
2021/08/16 08:33:05;;;;;;;7.53;3.67;;;;;;;19.25;93.10;93725.56;5072613;28;20195;-79
2021/08/16 08:35:33;;;;;;;18.20;3.50;;;;;;;19.20;94.49;93735.06;5072018;28;20213;-79
2021/08/16 08:38:01;;;;;;;5.82;3.10;;;;;;;19.23;90.56;93737.22;5072371;28;20210;-78
2021/08/16 08:40:27;;;;;;;6.15;3.15;;;;;;;19.49;92.51;93736.56;5072388;28;20203;-79
2021/08/16 08:42:55;;;;;;;9.60;3.50;;;;;;;19.50;95.71;93736.31;5072134;28;20199;-78
2021/08/16 08:45:26;;;;;;;6.72;3.15;;;;;;;19.15;92.26;93742.16;5072358;28;20235;-78
2021/08/16 08:47:55;;;;;;;7.00;3.22;;;;;;;19.09;92.58;93738.69;5073940;28;20214;-78
2021/08/16 08:50:24;;;;;;;8.80;3.38;;;;;;;19.40;92.02;93738.88;5075914;28;20578;-77
2021/08/16 08:52:54;;;;;;;10.23;3.65;;;;;;;19.84;91.37;93735.16;5076087;28;20238;-77
2021/08/16 08:55:21;;;;;;;11.73;3.40;;;;;;;19.30;90.49;93738.81;5075842;28;20209;-77
2021/08/16 08:57:48;;;;;;;5.63;3.22;;;;;;;19.56;92.36;93735.25;5076196;28;20230;-78
2021/08/16 09:00:18;;;;;;;6.78;3.20;;;;;;;19.81;92.08;93728.50;5075834;28;20198;-78
2021/08/16 09:02:56;;;;;;;6.40;3.22;;;;;;;19.80;92.05;93728.78;5076048;28;20286;-78
2021/08/16 09:05:25;;;;;;;6.53;3.05;;;;;;;20.50;91.05;93719.44;5075798;28;20210;-77
2021/08/16 09:07:54;;;;;;;6.50;3.30;;;;;;;19.80;87.76;93718.19;5075080;28;20195;-77
2021/08/16 09:10:27;;;;;;;11.80;3.30;;;;;;;19.57;91.27;93718.31;5075892;28;20235;-78
2021/08/16 09:13:00;;;;;;;6.60;2.83;;;;;;;19.22;92.27;93719.72;5075704;28;20592;-77
2021/08/16 09:15:30;;;;;;;8.43;3.35;;;;;;;19.63;87.68;93711.19;5069056;28;20229;-76
2021/08/16 09:18:03;;;;;;;10.52;2.90;;;;;;;19.59;90.97;93704.81;5075677;28;20226;-80
2021/08/16 09:20:34;;;;;;;7.03;3.38;;;;;;;19.68;94.04;93713.06;5075410;28;20202;-79
2021/08/16 09:23:05;;;;;;;6.43;2.83;;;;;;;19.83;89.72;93704.41;5075369;28;20195;-79
2021/08/16 09:25:36;;;;;;;5.95;3.20;;;;;;;20.08;90.51;93703.69;5075511;28;20199;-78
2021/08/16 09:28:06;;;;;;;5.88;2.58;;;;;;;20.01;88.52;93703.94;5075281;28;20561;-80
2021/08/16 09:30:39;;;;;;;8.98;3.28;;;;;;;19.39;87.70;93702.88;5075297;28;20234;-78
2021/08/16 09:33:16;;;;;;;5.78;2.70;;;;;;;19.41;91.93;93693.59;5075295;28;20644;-77
2021/08/16 09:35:54;;;;;;;5.57;3.00;;;;;;;19.83;92.90;93699.13;5075355;28;20202;-79
2021/08/16 09:38:32;;;;;;;6.18;3.38;;;;;;;19.76;90.55;93696.72;5075258;28;20234;-78
2021/08/16 09:41:01;;;;;;;8.30;2.60;;;;;;;20.01;94.17;93697.84;5075086;28;20672;-79
2021/08/16 09:43:27;;;;;;;7.10;3.03;;;;;;;20.25;88.15;93692.84;5075046;28;20209;-78
2021/08/16 09:45:54;;;;;;;10.48;3.50;;;;;;;19.77;91.55;93691.16;5075025;28;20230;-77
2021/08/16 09:48:23;;;;;;;9.00;3.30;;;;;;;19.88;92.89;93697.25;5074958;28;20256;-78
2021/08/16 09:50:54;;;;;;;8.75;3.00;;;;;;;18.88;94.68;93699.91;5074969;28;20317;-78
2021/08/16 09:53:23;;;;;;;6.63;3.45;;;;;;;18.80;96.61;93707.25;5074863;28;20209;-75
2021/08/16 09:55:51;;;;;;;8.82;2.92;;;;;;;18.54;99.45;93700.16;5074706;28;20629;-79
2021/08/16 09:58:20;;;;;;;6.32;3.13;;;;;;;18.38;98.75;93707.13;5075072;28;20206;-79
2021/08/16 10:00:48;;;;;;;6.40;2.80;;;;;;;18.28;100.00;93702.53;5074202;28;20211;-79
2021/08/16 10:03:15;;;;;;;8.93;3.40;;;;;;;18.45;100.00;93703.25;5074817;28;20558;-79
2021/08/16 10:05:44;;;;;;;8.77;3.38;;;;;;;18.19;100.00;93706.69;5074655;28;20199;-79
2021/08/16 10:08:15;;;;;;;5.28;2.83;;;;;;;18.03;100.00;93716.31;5074403;28;20215;-77
2021/08/16 10:10:54;;;;;;;5.35;2.88;;;;;;;17.73;100.00;93720.94;5074589;28;20721;-77
2021/08/16 10:13:25;;;;;;;6.03;2.90;;;;;;;17.41;100.00;93723.47;5074625;28;20221;-78
2021/08/16 10:15:57;;;;;;;6.38;2.97;;;;;;;17.36;100.00;93733.94;5074435;28;20202;-77
2021/08/16 10:18:33;;;;;;;8.30;3.53;;;;;;;17.32;100.00;93731.00;5074506;28;20257;-76
2021/08/16 10:21:04;;;;;;;6.78;2.70;;;;;;;17.64;100.00;93735.63;5074368;28;20660;-77
2021/08/16 10:23:30;;;;;;;5.28;2.58;;;;;;;17.83;100.00;93727.41;5074510;28;20194;-77
2021/08/16 10:25:58;;;;;;;5.63;2.67;;;;;;;18.16;100.00;93723.84;5074041;28;20285;-77
2021/08/16 10:28:31;;;;;;;4.65;2.67;;;;;;;17.85;100.00;93730.59;5074283;28;20199;-77
2021/08/16 10:31:03;;;;;;;9.02;3.28;;;;;;;18.55;98.10;93730.81;5074229;28;20233;-77
2021/08/16 10:33:33;;;;;;;4.70;2.22;;;;;;;18.71;97.40;93724.59;5073987;28;20297;-77
2021/08/16 10:36:04;;;;;;;4.30;2.47;;;;;;;18.99;95.55;93720.09;5074211;28;20230;-78
2021/08/16 10:38:31;;;;;;;7.57;2.85;;;;;;;18.42;95.41;93729.41;5073236;28;20203;-78
2021/08/16 10:41:08;;;;;;;8.90;2.63;;;;;;;18.21;98.14;93723.09;5073883;28;20202;-80
2021/08/16 10:43:43;;;;;;;5.03;2.38;;;;;;;18.45;95.85;93718.28;5073852;28;20559;-78
2021/08/16 10:46:21;;;;;;;5.78;2.63;;;;;;;18.34;96.51;93722.69;5073899;28;20265;-75
2021/08/16 10:48:59;;;;;;;5.07;2.35;;;;;;;18.11;98.18;93706.09;5074076;28;20210;-80
2021/08/16 10:51:25;;;;;;;5.93;2.47;;;;;;;18.35;96.00;93710.28;5074014;28;20226;-78
2021/08/16 10:53:54;;;;;;;7.97;2.85;;;;;;;18.10;96.70;93706.31;5074032;28;20201;-78
2021/08/16 10:56:22;;;;;;;4.45;2.10;;;;;;;18.20;97.39;93701.16;5074331;28;20203;-78
2021/08/16 10:58:50;;;;;;;6.72;2.70;;;;;;;18.60;97.22;93699.13;5074095;28;20282;-78
2021/08/16 11:01:26;;;;;;;6.80;2.45;;;;;;;18.62;96.92;93697.84;5073750;28;20213;-78
2021/08/16 11:03:56;;;;;;;6.00;2.20;;;;;;;19.33;94.60;93690.66;5073724;28;20668;-78
2021/08/16 11:06:22;;;;;;;5.90;2.50;;;;;;;19.73;90.63;93689.25;5073638;28;20275;-78
2021/08/16 11:08:55;;;;;;;5.70;2.70;;;;;;;20.08;89.98;93682.50;5073497;28;20203;-78
2021/08/16 11:11:21;;;;;;;5.03;2.28;;;;;;;19.62;89.10;93685.78;5073508;28;20226;-78
2021/08/16 11:13:48;;;;;;;4.85;2.50;;;;;;;20.08;88.82;93677.19;5073604;28;20203;-78
2021/08/16 11:16:16;;;;;;;7.65;2.42;;;;;;;19.88;89.61;93670.78;5073419;28;20206;-77
2021/08/16 11:18:52;;;;;;;6.65;2.53;;;;;;;20.19;89.46;93670.06;5073349;28;20203;-78
2021/08/16 11:21:22;;;;;;;5.80;2.50;;;;;;;20.43;87.55;93671.13;5073191;28;20657;-78